Time;durP1;ratioP1;P1;durP2;ratioP2;P2;SDS_P1;SDS_P2;PMS_P1;PMS_P2;Temp;Humidity;BMP_temperature;BMP_pressure;BME280_temperature;BME280_humidity;BME280_pressure;Samples;Min_cycle;Max_cycle;Signal;HPM_P1;HPM_P2
2023/06/30 00:00:55;;;;;;;8.27;4.40;;;16.20;99.90;;;;;;5032293;28;20044;-85
2023/06/30 00:03:22;;;;;;;12.23;4.53;;;16.20;99.90;;;;;;5024999;28;20048;-85
2023/06/30 00:05:48;;;;;;;7.97;4.20;;;16.40;99.90;;;;;;5034720;28;20137;-85
2023/06/30 00:08:15;;;;;;;10.50;4.10;;;16.10;99.90;;;;;;5011586;28;1108539;-84
2023/06/30 00:10:41;;;;;;;9.75;4.40;;;16.50;99.90;;;;;;5049933;28;20498;-85
2023/06/30 00:13:07;;;;;;;9.93;4.32;;;16.30;99.90;;;;;;5048164;28;20036;-84
2023/06/30 00:15:33;;;;;;;8.48;4.25;;;16.10;99.90;;;;;;5034140;28;20045;-85
2023/06/30 00:17:58;;;;;;;10.20;4.07;;;16.30;99.90;;;;;;5050387;28;20045;-85
2023/06/30 00:20:24;;;;;;;8.93;3.90;;;16.30;99.90;;;;;;5032450;28;20056;-85
2023/06/30 00:22:51;;;;;;;7.10;3.58;;;16.20;99.90;;;;;;5048680;28;20045;-85
2023/06/30 00:25:17;;;;;;;;;;;16.10;99.90;;;;;;5016937;28;20055;-85
2023/06/30 00:27:43;;;;;;;5.47;2.78;;;16.10;99.90;;;;;;5050733;28;19921;-85
2023/06/30 00:30:09;;;;;;;8.45;2.97;;;15.80;99.90;;;;;;5051794;28;20037;-85
2023/06/30 00:32:36;;;;;;;8.85;3.33;;;;;;;;;;5050393;28;20036;-85
2023/06/30 00:35:02;;;;;;;8.15;2.85;;;17.70;99.90;;;;;;5050912;28;20468;-85
2023/06/30 00:37:27;;;;;;;7.55;2.80;;;16.00;99.90;;;;;;5049898;28;20124;-84
2023/06/30 00:39:53;;;;;;;7.38;2.65;;;15.90;99.90;;;;;;5050934;28;20108;-85
2023/06/30 00:42:18;;;;;;;8.57;2.40;;;15.80;99.90;;;;;;5054216;28;20049;-83
2023/06/30 00:44:44;;;;;;;7.15;2.70;;;15.80;99.90;;;;;;5051636;28;20041;-82
2023/06/30 00:47:10;;;;;;;9.05;2.35;;;15.70;99.90;;;;;;5051431;28;20045;-82
2023/06/30 00:49:36;;;;;;;9.10;2.42;;;15.70;99.90;;;;;;5054295;28;20086;-82
2023/06/30 00:52:03;;;;;;;10.82;2.38;;;15.70;99.90;;;;;;5053960;28;20072;-83
2023/06/30 00:54:29;;;;;;;9.02;2.60;;;;;;;;;;5050658;28;20064;-83
2023/06/30 00:56:58;;;;;;;10.10;2.60;;;15.40;99.90;;;;;;5055283;28;20045;-83
2023/06/30 00:59:24;;;;;;;7.18;2.20;;;15.40;99.90;;;;;;5052873;28;20082;-84
2023/06/30 01:02:21;;;;;;;5.60;1.90;;;15.30;99.90;;;;;;5034522;28;20037;-85
2023/06/30 01:05:00;;;;;;;7.53;2.75;;;15.20;99.90;;;;;;5026290;28;20048;-84
2023/06/30 01:07:42;;;;;;;5.53;1.88;;;15.20;99.90;;;;;;5050671;28;20441;-85
2023/06/30 01:10:20;;;;;;;5.97;2.20;;;15.10;99.90;;;;;;5048382;28;20432;-84
2023/06/30 01:12:46;;;;;;;;;;;15.10;99.90;;;;;;5048863;28;20048;-84
2023/06/30 01:15:13;;;;;;;7.75;2.03;;;15.00;99.90;;;;;;5047092;28;19929;-85
2023/06/30 01:17:46;;;;;;;6.30;1.80;;;15.10;99.90;;;;;;5044047;28;20060;-84
2023/06/30 01:20:14;;;;;;;10.00;2.30;;;14.90;99.90;;;;;;5048655;28;20057;-83
2023/06/30 01:23:00;;;;;;;6.53;2.30;;;;;;;;;;5053928;28;20091;-83
2023/06/30 01:25:28;;;;;;;9.07;2.22;;;14.80;99.90;;;;;;5037567;28;20396;-83
2023/06/30 01:27:54;;;;;;;;;;;14.80;99.90;;;;;;5053460;28;20384;-82
2023/06/30 01:30:22;;;;;;;6.23;2.33;;;14.70;99.90;;;;;;5052072;28;19942;-83
2023/06/30 01:32:50;;;;;;;6.70;2.28;;;14.70;99.90;;;;;;5051289;28;20052;-82
2023/06/30 01:35:16;;;;;;;7.70;2.67;;;14.70;99.90;;;;;;5052868;28;20052;-82
2023/06/30 01:37:42;;;;;;;8.35;1.90;;;14.60;99.90;;;;;;5059609;28;20048;-82
2023/06/30 01:40:08;;;;;;;6.55;2.10;;;14.60;99.90;;;;;;5042322;28;20047;-82
2023/06/30 01:42:35;;;;;;;6.55;2.13;;;14.60;99.90;;;;;;5061232;28;20076;-83
2023/06/30 01:45:02;;;;;;;9.68;2.53;;;14.50;99.90;;;;;;5060088;28;20056;-83
2023/06/30 01:47:29;;;;;;;4.80;1.73;;;14.50;99.90;;;;;;5062035;28;20056;-83
2023/06/30 01:49:55;;;;;;;5.70;2.30;;;14.40;99.90;;;;;;5048547;28;20506;-83
2023/06/30 01:52:21;;;;;;;8.18;2.60;;;14.40;99.90;;;;;;5045808;28;20020;-81
2023/06/30 01:54:47;;;;;;;8.85;2.20;;;14.40;99.90;;;;;;5055635;28;20116;-82
2023/06/30 01:57:12;;;;;;;7.80;1.90;;;14.30;99.90;;;;;;5049686;28;20403;-81
2023/06/30 01:59:38;;;;;;;7.10;2.13;;;14.30;99.90;;;;;;5062295;28;20068;-81
2023/06/30 02:02:03;;;;;;;8.20;2.72;;;14.20;99.90;;;;;;5041650;28;20040;-81
2023/06/30 02:04:29;;;;;;;5.35;2.03;;;14.10;99.90;;;;;;5061671;28;20041;-81
2023/06/30 02:06:55;;;;;;;6.00;2.15;;;14.10;99.90;;;;;;5043768;28;20041;-82
2023/06/30 02:09:21;;;;;;;9.45;2.67;;;14.10;99.90;;;;;;5061379;28;20107;-82
2023/06/30 02:11:47;;;;;;;6.15;2.10;;;14.00;99.90;;;;;;5039699;28;20037;-84
2023/06/30 02:14:12;;;;;;;7.68;2.00;;;13.90;99.90;;;;;;5058188;28;20063;-83
2023/06/30 02:16:38;;;;;;;6.05;2.00;;;13.90;99.90;;;;;;5055377;28;20041;-84
2023/06/30 02:19:04;;;;;;;10.50;2.70;;;13.90;99.90;;;;;;5057298;28;20052;-84
2023/06/30 02:21:29;;;;;;;7.50;2.28;;;14.00;99.90;;;;;;5040307;28;20076;-84
2023/06/30 02:23:55;;;;;;;8.07;2.22;;;13.80;99.90;;;;;;5057508;28;20044;-84
2023/06/30 02:26:20;;;;;;;6.72;2.45;;;13.80;99.90;;;;;;5057194;28;20045;-83
2023/06/30 02:28:46;;;;;;;6.47;2.05;;;13.70;99.90;;;;;;5056412;28;20076;-84
2023/06/30 02:31:12;;;;;;;6.50;2.40;;;13.70;99.90;;;;;;5059690;28;20037;-83
2023/06/30 02:33:41;;;;;;;8.25;2.20;;;13.60;99.90;;;;;;5057163;28;20395;-84
2023/06/30 02:36:06;;;;;;;8.25;2.70;;;13.60;99.90;;;;;;5057584;28;20041;-83
2023/06/30 02:38:32;;;;;;;6.82;2.20;;;13.50;99.90;;;;;;5052416;28;20069;-83
2023/06/30 02:40:58;;;;;;;6.15;2.50;;;13.50;99.90;;;;;;5053989;28;20056;-83
2023/06/30 02:43:23;;;;;;;7.63;3.00;;;13.40;99.90;;;;;;5055205;28;20041;-83
2023/06/30 02:45:49;;;;;;;8.40;2.75;;;13.40;99.90;;;;;;5051276;28;20041;-83
2023/06/30 02:48:15;;;;;;;8.43;3.15;;;13.30;99.90;;;;;;5057531;28;20045;-82
2023/06/30 02:50:40;;;;;;;6.57;2.88;;;13.30;99.90;;;;;;5056029;28;20068;-83
2023/06/30 02:53:06;;;;;;;6.15;2.20;;;13.20;99.90;;;;;;5040452;28;20108;-83
2023/06/30 02:55:36;;;;;;;7.72;2.70;;;13.10;99.90;;;;;;5057894;28;20043;-83
2023/06/30 02:58:02;;;;;;;7.85;2.65;;;13.10;99.90;;;;;;5055946;28;20044;-84
2023/06/30 03:00:27;;;;;;;8.57;2.72;;;13.00;99.90;;;;;;5058607;28;20462;-83
2023/06/30 03:02:53;;;;;;;7.28;2.50;;;13.00;99.90;;;;;;5058490;28;20044;-83
2023/06/30 03:05:19;;;;;;;9.85;2.75;;;12.90;99.90;;;;;;5064180;28;20507;-83
2023/06/30 03:07:45;;;;;;;11.80;2.60;;;12.90;99.90;;;;;;5078369;28;20032;-82
2023/06/30 03:10:11;;;;;;;7.72;2.38;;;12.90;99.90;;;;;;5077581;28;20118;-83
2023/06/30 03:12:37;;;;;;;8.38;3.03;;;12.80;99.90;;;;;;5065558;28;20037;-83
2023/06/30 03:15:03;;;;;;;8.85;2.90;;;12.90;99.90;;;;;;5057859;28;20047;-83
2023/06/30 03:17:29;;;;;;;8.73;2.83;;;12.80;99.90;;;;;;5053746;28;20411;-83
2023/06/30 03:19:54;;;;;;;6.15;3.03;;;12.80;99.90;;;;;;5058270;28;20037;-83
2023/06/30 03:22:20;;;;;;;9.07;3.00;;;12.70;99.90;;;;;;5057479;28;20044;-83
2023/06/30 03:24:46;;;;;;;10.32;3.22;;;12.70;99.90;;;;;;5057409;28;20044;-83
2023/06/30 03:27:11;;;;;;;8.27;3.15;;;12.70;99.90;;;;;;5056236;28;20080;-83
2023/06/30 03:29:37;;;;;;;6.18;2.97;;;12.60;99.90;;;;;;5038866;28;20071;-83
2023/06/30 03:32:03;;;;;;;9.75;3.25;;;12.70;99.90;;;;;;5056354;28;20044;-83
2023/06/30 03:34:29;;;;;;;8.68;3.13;;;12.60;99.90;;;;;;5056027;28;20522;-82
2023/06/30 03:36:54;;;;;;;7.95;3.05;;;12.60;99.90;;;;;;5038195;28;20116;-83
2023/06/30 03:39:20;;;;;;;9.57;3.15;;;12.60;99.90;;;;;;5064059;28;20052;-84
2023/06/30 03:41:47;;;;;;;6.05;3.05;;;12.70;99.90;;;;;;5060551;28;20040;-84
2023/06/30 03:44:13;;;;;;;6.90;4.00;;;12.60;99.90;;;;;;5056669;28;20037;-84
2023/06/30 03:46:39;;;;;;;7.47;3.47;;;12.70;99.90;;;;;;5055991;28;20052;-85
2023/06/30 03:49:05;;;;;;;9.38;3.60;;;12.70;99.90;;;;;;5057863;28;20091;-84
2023/06/30 03:51:31;;;;;;;8.02;3.80;;;12.70;99.90;;;;;;5050082;28;20044;-83
2023/06/30 03:53:56;;;;;;;6.75;3.53;;;12.70;99.90;;;;;;5064970;28;20037;-83
2023/06/30 03:56:22;;;;;;;9.23;3.65;;;12.70;99.90;;;;;;5067295;28;20041;-83
2023/06/30 03:58:48;;;;;;;5.85;3.22;;;12.70;99.90;;;;;;5045422;28;20048;-83
2023/06/30 04:01:13;;;;;;;6.38;3.95;;;12.80;99.90;;;;;;5040706;28;20491;-83
2023/06/30 04:03:39;;;;;;;11.38;3.63;;;12.70;99.90;;;;;;5059060;28;20372;-82
2023/06/30 04:06:05;;;;;;;8.82;3.60;;;12.80;99.90;;;;;;5056611;28;20537;-82
2023/06/30 04:08:31;;;;;;;9.77;3.25;;;12.80;99.90;;;;;;5040176;28;20530;-82
2023/06/30 04:10:57;;;;;;;8.05;3.40;;;12.80;99.90;;;;;;5056028;28;20048;-82
2023/06/30 04:13:22;;;;;;;7.05;3.50;;;12.90;99.90;;;;;;5055563;28;20048;-82
2023/06/30 04:15:48;;;;;;;9.32;3.72;;;12.90;99.90;;;;;;5042474;28;20040;-81
2023/06/30 04:18:14;;;;;;;10.45;3.60;;;13.00;99.90;;;;;;5062166;28;20098;-81
2023/06/30 04:20:39;;;;;;;8.43;3.70;;;13.00;99.90;;;;;;5060185;28;20037;-82
2023/06/30 04:23:05;;;;;;;7.72;3.60;;;13.10;99.90;;;;;;5057950;28;20133;-82
2023/06/30 04:25:31;;;;;;;7.90;3.55;;;13.20;99.90;;;;;;5057569;28;20052;-82
2023/06/30 04:27:56;;;;;;;8.63;4.07;;;13.40;99.90;;;;;;5042497;28;20052;-81
2023/06/30 04:30:22;;;;;;;7.15;3.50;;;13.20;99.90;;;;;;5064149;28;20040;-81
2023/06/30 04:32:47;;;;;;;8.00;3.33;;;13.30;99.90;;;;;;5042320;28;20049;-80
2023/06/30 04:35:14;;;;;;;8.07;3.40;;;13.40;99.90;;;;;;5039736;28;20506;-80
2023/06/30 04:37:40;;;;;;;9.00;3.50;;;13.40;99.90;;;;;;5055036;28;20044;-81
2023/06/30 04:40:10;;;;;;;9.90;3.67;;;14.00;99.90;;;;;;5039517;28;20048;-81
2023/06/30 04:42:37;;;;;;;9.60;3.33;;;14.90;99.90;;;;;;5059601;28;20142;-81
2023/06/30 04:45:03;;;;;;;8.45;3.13;;;15.60;99.90;;;;;;5059724;28;20041;-81
2023/06/30 04:47:31;;;;;;;6.75;3.13;;;;;;;;;;5043313;28;20071;-85
2023/06/30 04:49:57;;;;;;;9.45;3.15;;;;;;;;;;5034504;28;20053;-84
2023/06/30 04:52:23;;;;;;;10.93;3.70;;;16.30;99.90;;;;;;5033242;28;20055;-84
2023/06/30 04:54:49;;;;;;;9.88;3.33;;;16.70;99.90;;;;;;5033437;28;20049;-84
2023/06/30 04:57:17;;;;;;;8.07;2.90;;;;;;;;;;5049961;28;20060;-84
2023/06/30 04:59:43;;;;;;;9.00;3.85;;;17.40;99.90;;;;;;5052904;28;20059;-84
2023/06/30 05:02:09;;;;;;;5.30;2.72;;;17.70;99.90;;;;;;5054766;28;20041;-83
2023/06/30 05:04:34;;;;;;;6.90;2.70;;;17.90;99.90;;;;;;5055293;28;20139;-82
2023/06/30 05:07:00;;;;;;;6.10;2.97;;;18.20;99.90;;;;;;5055383;28;20037;-83
2023/06/30 05:09:25;;;;;;;6.57;2.50;;;19.00;99.90;;;;;;5054100;28;20048;-83
2023/06/30 05:11:52;;;;;;;10.00;2.78;;;19.40;99.90;;;;;;5039629;28;20049;-82
2023/06/30 05:14:17;;;;;;;6.15;2.63;;;19.50;99.90;;;;;;5062742;28;20052;-82
2023/06/30 05:16:43;;;;;;;7.15;2.25;;;20.30;99.90;;;;;;5060099;28;20049;-82
2023/06/30 05:19:09;;;;;;;7.60;2.53;;;20.50;99.90;;;;;;5043990;28;20080;-82
2023/06/30 05:21:34;;;;;;;4.47;2.28;;;20.70;99.90;;;;;;5062927;28;20056;-82
2023/06/30 05:24:00;;;;;;;5.78;2.10;;;21.80;99.90;;;;;;5061968;28;20048;-82
2023/06/30 05:26:26;;;;;;;5.97;2.03;;;22.10;99.90;;;;;;5047951;28;20077;-82
2023/06/30 05:28:52;;;;;;;4.82;2.13;;;;;;;;;;5042003;28;20080;-82
2023/06/30 05:31:17;;;;;;;7.28;2.13;;;23.40;99.90;;;;;;5047707;28;20037;-81
2023/06/30 05:33:43;;;;;;;4.57;2.03;;;23.40;99.90;;;;;;5043263;28;20450;-82
2023/06/30 05:36:08;;;;;;;6.22;2.00;;;23.80;99.90;;;;;;5062824;28;20421;-81
2023/06/30 05:38:34;;;;;;;7.38;2.65;;;24.30;99.90;;;;;;5045359;28;20126;-81
2023/06/30 05:41:00;;;;;;;5.95;1.92;;;24.40;99.90;;;;;;5044192;28;20106;-81
2023/06/30 05:43:26;;;;;;;5.20;2.28;;;24.80;99.90;;;;;;5064003;28;20080;-81
2023/06/30 05:45:51;;;;;;;7.65;2.22;;;25.20;99.90;;;;;;5061736;28;20041;-83
2023/06/30 05:48:17;;;;;;;7.68;2.00;;;25.40;99.90;;;;;;5061576;28;20063;-82
2023/06/30 05:50:45;;;;;;;5.10;1.65;;;25.80;99.90;;;;;;5060102;28;20044;-82
2023/06/30 05:53:10;;;;;;;8.80;2.00;;;25.90;99.90;;;;;;5059938;28;20071;-84
2023/06/30 05:55:36;;;;;;;4.53;1.50;;;26.10;99.90;;;;;;5059122;28;20492;-84
2023/06/30 05:58:01;;;;;;;5.30;1.63;;;26.20;99.90;;;;;;5059350;28;20033;-84
2023/06/30 06:00:27;;;;;;;6.22;2.30;;;26.50;99.90;;;;;;5037483;28;20037;-84
2023/06/30 06:02:54;;;;;;;8.38;1.58;;;26.60;99.90;;;;;;5050927;28;20045;-84
2023/06/30 06:05:20;;;;;;;4.13;1.60;;;26.80;99.90;;;;;;5054959;28;20048;-84
2023/06/30 06:07:47;;;;;;;5.18;1.60;;;26.10;99.90;;;;;;5035079;28;20049;-84
2023/06/30 06:10:13;;;;;;;6.32;2.10;;;25.80;99.90;;;;;;5039395;28;20495;-84
2023/06/30 06:12:39;;;;;;;8.15;2.00;;;25.00;99.90;;;;;;5041812;28;20045;-84
2023/06/30 06:15:06;;;;;;;7.03;2.10;;;24.00;99.90;;;;;;5057463;28;20037;-84
2023/06/30 06:17:32;;;;;;;6.35;1.83;;;23.20;99.90;;;;;;5059389;28;20045;-81
2023/06/30 06:19:58;;;;;;;6.53;1.73;;;22.80;99.90;;;;;;5058904;28;20083;-81
2023/06/30 06:22:24;;;;;;;5.68;1.80;;;23.50;99.90;;;;;;5041482;28;20044;-82
2023/06/30 06:24:49;;;;;;;5.43;1.67;;;24.30;99.90;;;;;;5040686;28;20076;-82
2023/06/30 06:27:15;;;;;;;6.72;1.73;;;24.90;99.90;;;;;;5042381;28;20044;-82
2023/06/30 06:29:41;;;;;;;5.55;1.77;;;25.40;99.90;;;;;;5061731;28;20037;-83
2023/06/30 06:32:07;;;;;;;4.10;1.67;;;26.00;99.90;;;;;;5047207;28;20041;-83
2023/06/30 06:34:33;;;;;;;6.38;1.77;;;26.40;99.90;;;;;;5041825;28;20123;-82
2023/06/30 06:37:00;;;;;;;3.88;1.60;;;26.30;99.90;;;;;;5010746;28;20041;-80
2023/06/30 06:39:26;;;;;;;7.40;2.00;;;26.60;99.90;;;;;;5042247;28;20492;-81
2023/06/30 06:41:51;;;;;;;3.25;1.75;;;26.90;99.60;;;;;;5060876;28;20045;-82
2023/06/30 06:44:17;;;;;;;4.78;1.70;;;26.80;99.00;;;;;;5042856;28;20063;-84
2023/06/30 06:46:43;;;;;;;4.30;1.33;;;26.70;98.90;;;;;;5048800;28;20033;-83
2023/06/30 06:49:09;;;;;;;5.93;1.52;;;26.60;98.70;;;;;;5069514;28;20506;-82
2023/06/30 06:51:35;;;;;;;5.18;1.33;;;25.30;98.60;;;;;;5037853;28;20045;-83
2023/06/30 06:54:00;;;;;;;5.53;1.35;;;25.00;99.40;;;;;;5042561;28;20037;-83
2023/06/30 06:56:26;;;;;;;4.60;1.58;;;25.00;99.90;;;;;;5059465;28;20044;-82
2023/06/30 06:58:51;;;;;;;4.88;1.50;;;25.20;99.90;;;;;;5058843;28;20041;-83
2023/06/30 07:01:17;;;;;;;4.75;1.38;;;24.50;98.80;;;;;;5058220;28;20037;-82
2023/06/30 07:03:43;;;;;;;5.13;1.15;;;23.70;99.60;;;;;;5061127;28;20037;-81
2023/06/30 07:06:09;;;;;;;6.47;1.38;;;23.50;99.90;;;;;;5039495;28;20044;-84
2023/06/30 07:08:36;;;;;;;6.00;1.40;;;23.30;99.90;;;;;;5051279;28;20055;-81
2023/06/30 07:11:08;;;;;;;4.43;1.02;;;23.20;99.90;;;;;;5057841;28;20053;-83
2023/06/30 07:13:34;;;;;;;5.13;1.25;;;22.40;99.90;;;;;;5049753;28;20033;-84
2023/06/30 07:16:00;;;;;;;5.93;1.70;;;22.40;99.90;;;;;;5031257;28;20056;-78
2023/06/30 07:18:25;;;;;;;4.85;1.23;;;22.20;99.90;;;;;;5052563;28;20056;-80
2023/06/30 07:20:53;;;;;;;4.40;1.25;;;22.70;99.90;;;;;;5053923;28;20099;-80
2023/06/30 07:23:19;;;;;;;6.30;2.28;;;22.50;99.90;;;;;;5055897;28;20045;-80
2023/06/30 07:25:45;;;;;;;4.07;1.10;;;22.80;99.90;;;;;;5051695;28;20537;-81
2023/06/30 07:28:12;;;;;;;5.18;1.60;;;22.90;99.90;;;;;;5050682;28;20092;-84
2023/06/30 07:30:41;;;;;;;7.97;1.70;;;23.10;99.90;;;;;;5050247;28;20055;-81
2023/06/30 07:33:06;;;;;;;4.82;1.30;;;23.00;99.90;;;;;;5032235;28;20061;-80
2023/06/30 07:35:32;;;;;;;4.38;1.20;;;23.10;99.90;;;;;;5050702;28;20440;-79
2023/06/30 07:37:58;;;;;;;3.47;1.10;;;22.80;99.90;;;;;;5050635;28;20048;-80
2023/06/30 07:40:23;;;;;;;3.00;1.00;;;22.50;99.90;;;;;;5049391;28;20051;-85
2023/06/30 07:42:49;;;;;;;4.82;1.50;;;22.00;99.90;;;;;;5047120;28;20056;-80
2023/06/30 07:45:16;;;;;;;4.13;1.48;;;21.80;99.90;;;;;;5049208;28;20041;-81
2023/06/30 07:47:43;;;;;;;4.75;1.48;;;21.90;99.90;;;;;;5045004;28;20085;-79
2023/06/30 07:50:12;;;;;;;3.70;1.27;;;22.00;99.90;;;;;;5031961;28;20080;-82
2023/06/30 07:52:45;;;;;;;4.63;1.20;;;21.60;99.90;;;;;;5046898;28;20037;-80
2023/06/30 07:55:16;;;;;;;4.57;1.08;;;21.70;99.90;;;;;;5053868;28;20045;-80
2023/06/30 07:57:42;;;;;;;2.13;1.00;;;21.60;99.90;;;;;;5056162;28;20049;-81
2023/06/30 08:00:10;;;;;;;3.72;1.05;;;21.40;99.90;;;;;;5053462;28;20393;-80
2023/06/30 08:02:36;;;;;;;3.70;1.17;;;21.60;99.90;;;;;;5051952;28;20044;-81
2023/06/30 08:05:03;;;;;;;5.30;1.15;;;21.70;99.90;;;;;;5054910;28;20170;-80
2023/06/30 08:07:28;;;;;;;4.93;1.17;;;22.10;99.90;;;;;;5055922;28;20047;-81
2023/06/30 08:09:54;;;;;;;3.33;1.02;;;21.90;99.90;;;;;;5037996;28;20411;-80
2023/06/30 08:12:20;;;;;;;4.60;1.23;;;22.00;99.90;;;;;;5055813;28;20049;-80
2023/06/30 08:14:48;;;;;;;3.30;1.50;;;21.60;99.90;;;;;;5034570;28;20049;-80
2023/06/30 08:17:15;;;;;;;1.92;0.73;;;21.90;99.90;;;;;;5016000;28;20077;-80
2023/06/30 08:19:41;;;;;;;3.67;1.27;;;22.00;99.90;;;;;;5048607;28;20041;-81
2023/06/30 08:22:08;;;;;;;3.30;1.13;;;22.10;99.90;;;;;;5018020;28;20051;-80
2023/06/30 08:24:34;;;;;;;2.05;0.90;;;21.20;99.90;;;;;;5053517;28;20076;-80
2023/06/30 08:26:59;;;;;;;4.78;1.15;;;21.60;99.90;;;;;;5035380;28;20044;-80
2023/06/30 08:29:25;;;;;;;2.42;1.00;;;22.10;99.90;;;;;;5053441;28;20048;-81
2023/06/30 08:31:50;;;;;;;4.80;1.10;;;22.50;99.90;;;;;;5037955;28;20048;-80
2023/06/30 08:34:16;;;;;;;4.72;1.23;;;22.60;99.90;;;;;;5047699;28;20052;-80
2023/06/30 08:36:42;;;;;;;6.25;1.20;;;22.40;99.90;;;;;;5024404;28;20041;-80
2023/06/30 08:39:07;;;;;;;3.40;1.10;;;22.00;99.90;;;;;;5052922;28;20049;-80
2023/06/30 08:41:36;;;;;;;4.13;1.27;;;22.10;99.90;;;;;;5055365;28;20040;-81
2023/06/30 08:44:02;;;;;;;3.80;0.93;;;22.70;99.90;;;;;;5053424;28;20048;-79
2023/06/30 08:46:29;;;;;;;3.33;0.90;;;22.90;99.90;;;;;;5054376;28;20393;-80
2023/06/30 08:48:55;;;;;;;2.40;0.98;;;23.10;99.50;;;;;;5058882;28;20073;-79
2023/06/30 08:51:22;;;;;;;2.13;0.82;;;22.50;99.20;;;;;;5057387;28;20585;-79
2023/06/30 08:53:51;;;;;;;5.40;1.00;;;22.80;99.10;;;;;;5061423;28;20438;-79
2023/06/30 08:56:18;;;;;;;5.13;1.03;;;23.00;99.30;;;;;;5042618;28;20045;-79
2023/06/30 08:58:44;;;;;;;1.58;0.70;;;22.60;99.20;;;;;;5053338;28;20034;-79
2023/06/30 09:01:12;;;;;;;3.08;1.13;;;22.10;98.90;;;;;;5049960;28;20554;-79
2023/06/30 09:03:38;;;;;;;2.45;1.00;;;22.40;99.00;;;;;;5055171;28;20356;-79
2023/06/30 09:06:05;;;;;;;4.80;1.00;;;22.50;98.40;;;;;;5053607;28;20033;-79
2023/06/30 09:08:47;;;;;;;2.00;0.77;;;22.70;98.20;;;;;;5040229;28;20127;-79
2023/06/30 09:11:15;;;;;;;4.63;0.95;;;22.80;98.40;;;;;;5054216;28;20060;-79
2023/06/30 09:13:42;;;;;;;3.33;0.93;;;22.60;98.30;;;;;;5019899;28;20062;-79
2023/06/30 09:16:12;;;;;;;2.45;1.00;;;22.10;98.70;;;;;;5055210;28;20506;-79
2023/06/30 09:18:38;;;;;;;1.88;0.70;;;22.10;98.10;;;;;;5058576;28;20044;-79
2023/06/30 09:21:06;;;;;;;2.70;0.75;;;22.30;97.70;;;;;;5020806;28;20041;-79
2023/06/30 09:23:33;;;;;;;2.08;0.82;;;22.70;97.50;;;;;;5057068;28;20514;-80
2023/06/30 09:25:58;;;;;;;2.97;1.10;;;23.00;97.80;;;;;;5055232;28;20037;-79
2023/06/30 09:28:24;;;;;;;3.65;0.88;;;23.30;98.00;;;;;;5050067;28;20047;-79
2023/06/30 09:30:50;;;;;;;5.70;1.02;;;23.60;96.90;;;;;;5036918;28;20476;-79
2023/06/30 09:33:17;;;;;;;3.38;1.00;;;23.80;97.50;;;;;;5052883;28;20398;-80
2023/06/30 09:35:47;;;;;;;3.72;1.33;;;24.00;97.50;;;;;;5053943;28;20143;-80
2023/06/30 09:38:18;;;;;;;2.20;1.00;;;23.90;96.60;;;;;;5048384;28;20053;-80
2023/06/30 09:40:46;;;;;;;1.92;0.90;;;23.50;96.90;;;;;;5056739;28;20037;-80
2023/06/30 09:43:16;;;;;;;2.85;0.88;;;24.00;97.70;;;;;;5040340;28;20132;-80
2023/06/30 09:45:45;;;;;;;3.17;1.08;;;24.40;99.90;;;;;;5036575;28;20049;-80
2023/06/30 09:48:12;;;;;;;2.53;1.10;;;24.70;99.90;;;;;;5042495;28;20052;-79
2023/06/30 09:50:37;;;;;;;3.08;1.15;;;24.70;96.50;;;;;;5058398;28;20041;-80
2023/06/30 09:53:03;;;;;;;2.42;1.10;;;24.80;98.50;;;;;;5034783;28;20051;-80
2023/06/30 09:55:29;;;;;;;3.53;0.98;;;24.80;97.10;;;;;;5046668;28;20072;-81
2023/06/30 09:57:58;;;;;;;2.17;0.98;;;25.10;96.50;;;;;;5032571;28;20048;-81
2023/06/30 10:00:25;;;;;;;5.20;0.85;;;24.80;99.90;;;;;;5059312;28;20122;-81
2023/06/30 10:03:05;;;;;;;4.72;1.00;;;24.30;99.30;;;;;;5064352;28;20558;-80
2023/06/30 10:05:31;;;;;;;1.60;0.82;;;24.00;97.90;;;;;;5063858;28;20068;-80
2023/06/30 10:08:00;;;;;;;5.60;1.08;;;23.60;99.20;;;;;;5063480;28;20041;-80
2023/06/30 10:10:27;;;;;;;2.35;1.00;;;23.70;97.10;;;;;;5070487;28;20107;-80
2023/06/30 10:12:55;;;;;;;1.73;0.90;;;24.00;97.60;;;;;;5082458;28;20040;-80
2023/06/30 10:15:20;;;;;;;2.15;0.93;;;23.60;94.90;;;;;;5045144;28;20076;-80
2023/06/30 10:17:48;;;;;;;4.93;0.98;;;24.00;96.00;;;;;;5062279;28;20407;-80
2023/06/30 10:20:13;;;;;;;3.67;1.15;;;24.20;96.50;;;;;;5063271;28;20451;-80
2023/06/30 10:22:40;;;;;;;2.70;0.93;;;24.20;97.10;;;;;;5051132;28;20041;-81
2023/06/30 10:25:08;;;;;;;1.85;0.70;;;24.40;96.30;;;;;;5044566;28;20056;-80
2023/06/30 10:27:35;;;;;;;;;;;24.80;99.00;;;;;;5051929;28;20039;-81
2023/06/30 10:30:01;;;;;;;2.33;0.75;;;24.90;96.80;;;;;;5066034;28;19927;-80
2023/06/30 10:32:27;;;;;;;6.63;1.10;;;24.90;95.70;;;;;;5041689;28;20042;-80
2023/06/30 10:34:53;;;;;;;3.17;1.00;;;24.90;95.60;;;;;;5058958;28;20051;-80
2023/06/30 10:37:20;;;;;;;3.85;1.00;;;24.40;95.80;;;;;;5040698;28;20132;-80
2023/06/30 10:39:46;;;;;;;3.25;1.20;;;24.00;95.80;;;;;;5056205;28;20033;-80
2023/06/30 10:42:13;;;;;;;2.78;1.10;;;23.80;96.30;;;;;;5046977;28;20063;-80
2023/06/30 10:44:43;;;;;;;5.70;1.30;;;23.70;98.90;;;;;;5058173;28;20038;-80
2023/06/30 10:47:09;;;;;;;5.32;1.30;;;23.50;96.60;;;;;;5067940;28;20051;-81
2023/06/30 10:49:40;;;;;;;2.88;1.10;;;24.10;97.50;;;;;;5023389;28;20053;-80
2023/06/30 10:52:10;;;;;;;1.70;1.20;;;24.40;97.10;;;;;;5056919;28;20068;-80
2023/06/30 10:54:42;;;;;;;2.35;1.00;;;;;;;;;;5057720;28;20074;-80
2023/06/30 10:57:19;;;;;;;2.58;0.90;;;25.00;99.40;;;;;;5041905;28;20052;-81
2023/06/30 10:59:46;;;;;;;1.55;0.80;;;25.30;94.90;;;;;;5059821;28;20055;-80
2023/06/30 11:02:18;;;;;;;1.45;0.75;;;25.40;95.20;;;;;;5047512;28;20051;-81
2023/06/30 11:04:45;;;;;;;3.97;1.10;;;;;;;;;;5060206;28;20449;-81
2023/06/30 11:07:17;;;;;;;;;;;25.30;94.10;;;;;;5063091;28;20494;-80
2023/06/30 11:09:49;;;;;;;2.45;0.95;;;25.00;94.20;;;;;;5062351;28;19920;-80
2023/06/30 11:12:19;;;;;;;3.28;1.10;;;25.20;94.40;;;;;;5042910;28;20041;-80
2023/06/30 11:14:58;;;;;;;4.72;1.27;;;25.20;95.30;;;;;;5035820;28;20056;-81
2023/06/30 11:17:25;;;;;;;1.60;0.90;;;24.60;95.80;;;;;;5036127;28;20056;-80
2023/06/30 11:20:11;;;;;;;3.63;1.13;;;24.40;93.80;;;;;;5055045;28;20133;-80
2023/06/30 11:22:37;;;;;;;3.08;1.15;;;24.20;94.10;;;;;;5027361;28;20491;-81
2023/06/30 11:25:10;;;;;;;2.20;1.10;;;24.00;94.10;;;;;;5049127;28;20041;-81
2023/06/30 11:27:37;;;;;;;3.88;1.52;;;23.60;93.70;;;;;;5038512;28;20049;-80
2023/06/30 11:30:04;;;;;;;2.65;1.10;;;23.60;94.70;;;;;;5024321;28;20037;-81
2023/06/30 11:32:31;;;;;;;3.15;1.00;;;24.20;94.30;;;;;;5059004;28;20049;-80
2023/06/30 11:35:01;;;;;;;5.50;1.27;;;24.80;94.40;;;;;;5063216;28;20068;-80
2023/06/30 11:37:27;;;;;;;3.97;0.93;;;24.70;92.70;;;;;;5056932;28;20080;-82
2023/06/30 11:39:54;;;;;;;2.03;0.80;;;24.90;92.60;;;;;;5029392;28;20455;-85
2023/06/30 11:42:20;;;;;;;4.78;1.00;;;25.00;93.30;;;;;;5046325;28;20041;-81
2023/06/30 11:44:48;;;;;;;2.45;0.98;;;25.10;92.60;;;;;;5047872;28;20049;-82
2023/06/30 11:47:15;;;;;;;3.08;1.00;;;25.00;91.80;;;;;;5052395;28;20049;-82
2023/06/30 11:49:41;;;;;;;4.80;0.93;;;25.40;92.80;;;;;;5048540;28;20049;-81
2023/06/30 11:52:06;;;;;;;3.15;0.98;;;25.40;91.60;;;;;;5056750;28;20294;-81
2023/06/30 11:54:33;;;;;;;3.42;1.10;;;25.60;91.30;;;;;;5057717;28;20041;-81
2023/06/30 11:56:59;;;;;;;2.05;1.10;;;25.30;91.10;;;;;;5057376;28;20098;-81
2023/06/30 11:59:26;;;;;;;5.18;1.25;;;25.10;90.90;;;;;;5055663;28;20070;-81
2023/06/30 12:01:52;;;;;;;1.95;0.90;;;24.80;90.70;;;;;;5058779;28;20226;-79
2023/06/30 12:04:18;;;;;;;4.43;1.30;;;24.50;91.00;;;;;;5058415;28;20056;-80
2023/06/30 12:06:46;;;;;;;1.63;1.15;;;24.90;91.30;;;;;;5050292;28;20041;-80
2023/06/30 12:09:12;;;;;;;3.10;1.30;;;25.50;99.90;;;;;;5060502;28;20053;-80
2023/06/30 12:11:44;;;;;;;2.10;1.08;;;25.10;93.90;;;;;;5039442;28;20045;-81
2023/06/30 12:14:15;;;;;;;2.35;1.30;;;25.20;94.30;;;;;;5052307;28;20047;-81
2023/06/30 12:16:45;;;;;;;3.08;1.35;;;25.20;93.90;;;;;;5052427;28;20072;-81
2023/06/30 12:19:12;;;;;;;4.85;1.42;;;25.40;92.80;;;;;;5053241;28;20052;-82
2023/06/30 12:21:54;;;;;;;;;;;25.40;92.40;;;;;;5029411;28;20049;-82
2023/06/30 12:24:21;;;;;;;4.50;1.50;;;25.40;92.10;;;;;;5019382;28;19943;-81
2023/06/30 12:26:48;;;;;;;3.65;1.10;;;25.30;91.50;;;;;;5059757;28;20040;-80
2023/06/30 12:29:17;;;;;;;2.70;1.20;;;25.40;92.00;;;;;;5060815;28;20037;-81
2023/06/30 12:31:46;;;;;;;2.75;1.20;;;;;;;;;;5042563;28;20045;-80
2023/06/30 12:34:13;;;;;;;3.95;1.27;;;25.60;91.50;;;;;;5060953;28;20056;-79
2023/06/30 12:36:40;;;;;;;3.47;1.27;;;25.40;91.50;;;;;;5042014;28;20071;-80
2023/06/30 12:39:06;;;;;;;1.83;1.10;;;25.50;92.40;;;;;;5046013;28;20373;-80
2023/06/30 12:41:32;;;;;;;2.05;1.10;;;25.10;91.20;;;;;;5045187;28;20128;-80
2023/06/30 12:44:00;;;;;;;3.92;1.52;;;25.30;91.90;;;;;;5059184;28;20091;-80
2023/06/30 12:46:26;;;;;;;3.20;1.60;;;25.40;91.20;;;;;;5059061;28;20083;-80
2023/06/30 12:48:52;;;;;;;2.08;1.10;;;25.40;91.20;;;;;;5039741;28;20033;-80